YM Initiative — A8HX4 — position and weather

sailwx.info

Track history (hours):
 
Tides and Currents Weather Stations Pressure Air Temp Water Temp Dewpoint Dewpoint Depression Visibility Wind Speed Wind Dir Waves Ship Positions

YM Initiative

Last reported at 2017-Aug-15 11:10 UTC. Time now 2017-Aug-17 13:41 UTC.
Position N 22°30' E 119°54'.

Length 173 m; draft 7.7 m.

Type: Cargo ship. MMSI: 635961368.

Date/timePositionNaut miles runAvg speedWind from/ knotsBaromVisibWave heightAir tempDewpointWater temp
2017-Aug-15 11:10N 22°30' E 119°54'316.6
2017-Aug-15 11:00N 22°31' E 119°56'816.4
2017-Aug-15 10:30N 22°32' E 120°05'816.4
2017-Aug-15 10:00N 22°33' E 120°14'5 0.6
2017-Aug-15 02:28N 22°33' E 120°19'3 5.9
2017-Aug-15 02:00N 22°33' E 120°16'4 8.7
2017-Aug-15 01:30N 22°34' E 120°12'612.0
2017-Aug-15 01:00N 22°39' E 120°09'611.7
2017-Aug-15 00:30N 22°44' E 120°06'612.6
2017-Aug-15 00:00N 22°48' E 120°01'92 6.0
2017-Aug-14 08:45N 24°17' E 120°25'1 4.4
2017-Aug-14 08:25N 24°19' E 120°25'4 7.7
2017-Aug-14 07:51N 24°22' E 120°28'  
2017-Aug-06 19:06N 24°28' E 119°04'2918.2
2017-Aug-06 17:30N 24°17' E 118°34'1217.0
2017-Aug-06 16:46N 24°18' E 118°21'415.8
2017-Aug-06 16:31N 24°18' E 118°16'714.0
2017-Aug-06 16:00N 24°21' E 118°09'510.1
2017-Aug-06 15:31N 24°25' E 118°05'4 8.7
2017-Aug-06 15:00N 24°29' E 118°04'2 3.8
2017-Aug-06 14:28N 24°31' E 118°05'0 0.0
2017-Aug-06 13:28N 24°31' E 118°05'0 0.0
2017-Aug-06 12:58N 24°31' E 118°05'0 0.0
2017-Aug-06 12:28N 24°31' E 118°05'0 0.0
2017-Aug-06 11:58N 24°31' E 118°05'0 0.0
2017-Aug-06 11:25N 24°31' E 118°05'0 0.0
2017-Aug-06 10:58N 24°31' E 118°05'0 0.0
2017-Aug-06 10:28N 24°31' E 118°05'0 0.0
2017-Aug-06 09:58N 24°31' E 118°05'0 0.0
2017-Aug-06 09:28N 24°31' E 118°05'0 0.0
2017-Aug-06 08:58N 24°31' E 118°05'0 0.0
2017-Aug-06 08:22N 24°31' E 118°05'0 0.0
2017-Aug-06 07:52N 24°31' E 118°05'0 0.0
2017-Aug-06 07:28N 24°31' E 118°05'0 0.0
2017-Aug-06 06:58N 24°31' E 118°05'0 0.0
2017-Aug-06 06:28N 24°31' E 118°05'0 0.0
2017-Aug-06 05:58N 24°31' E 118°05'0 0.0
2017-Aug-06 05:28N 24°31' E 118°05'0 0.0
2017-Aug-06 04:58N 24°31' E 118°05'0 0.0
2017-Aug-06 04:28N 24°31' E 118°05'0 0.0
2017-Aug-06 03:55N 24°31' E 118°05'0 0.0
2017-Aug-06 03:28N 24°31' E 118°05'0 0.0
2017-Aug-06 02:58N 24°31' E 118°05'0 0.0
2017-Aug-06 02:22N 24°31' E 118°05'0 0.0
2017-Aug-06 01:58N 24°31' E 118°05'0 1.0
2017-Aug-06 01:30N 24°31' E 118°04'510.0
2017-Aug-06 01:01N 24°26' E 118°04'612.7
2017-Aug-06 00:31N 24°21' E 118°09'510.0
2017-Aug-06 00:01N 24°19' E 118°14'4 8.1
2017-Aug-05 23:31N 24°18' E 118°18'3 6.2
2017-Aug-05 23:00N 24°15' E 118°19'4 7.3
2017-Aug-05 22:29N 24°12' E 118°19'5 9.4
2017-Aug-05 22:00N 24°08' E 118°23'612.5
2017-Aug-05 21:30N 24°07' E 118°29'7 7.3
2017-Aug-05 20:32N 24°03' E 118°35'8 3.7
2017-Aug-05 18:28N 24°01' E 118°27'2 4.8
2017-Aug-05 18:00N 23°59' E 118°25'5 9.5
2017-Aug-05 17:30N 23°57' E 118°21'6 9.6
2017-Aug-05 16:54N 23°53' E 118°16'5 9.5
2017-Aug-05 16:23N 23°50' E 118°12'7 9.6
2017-Aug-05 15:37N 23°44' E 118°07'7 9.6
2017-Aug-05 14:50N 23°39' E 118°01'410.5
2017-Aug-05 14:30N 23°36' E 117°59'1015.4
2017-Aug-05 13:50N 23°29' E 117°51'  
Track history (hours):
 
Tides and Currents Weather Stations Pressure Air Temp Water Temp Dewpoint Dewpoint Depression Visibility Wind Speed Wind Dir Waves Ship Positions

YM Initiative

Last reported at 2017-Aug-15 11:10 UTC. Time now 2017-Aug-17 13:41 UTC.
Position N 22°30' E 119°54'.

Length 173 m; draft 7.7 m.

Type: Cargo ship. MMSI: 635961368.

Date/timePositionNaut miles runAvg speedWind from/ knotsBaromVisibWave heightAir tempDewpointWater temp
2017-Aug-15 11:10N 22°30' E 119°54'316.6
2017-Aug-15 11:00N 22°31' E 119°56'816.4
2017-Aug-15 10:30N 22°32' E 120°05'816.4
2017-Aug-15 10:00N 22°33' E 120°14'5 0.6
2017-Aug-15 02:28N 22°33' E 120°19'3 5.9
2017-Aug-15 02:00N 22°33' E 120°16'4 8.7
2017-Aug-15 01:30N 22°34' E 120°12'612.0
2017-Aug-15 01:00N 22°39' E 120°09'611.7
2017-Aug-15 00:30N 22°44' E 120°06'612.6
2017-Aug-15 00:00N 22°48' E 120°01'92 6.0
2017-Aug-14 08:45N 24°17' E 120°25'1 4.4
2017-Aug-14 08:25N 24°19' E 120°25'4 7.7
2017-Aug-14 07:51N 24°22' E 120°28'  
2017-Aug-06 19:06N 24°28' E 119°04'2918.2
2017-Aug-06 17:30N 24°17' E 118°34'1217.0
2017-Aug-06 16:46N 24°18' E 118°21'415.8
2017-Aug-06 16:31N 24°18' E 118°16'714.0
2017-Aug-06 16:00N 24°21' E 118°09'510.1
2017-Aug-06 15:31N 24°25' E 118°05'4 8.7
2017-Aug-06 15:00N 24°29' E 118°04'2 3.8
2017-Aug-06 14:28N 24°31' E 118°05'0 0.0
2017-Aug-06 13:28N 24°31' E 118°05'0 0.0
2017-Aug-06 12:58N 24°31' E 118°05'0 0.0
2017-Aug-06 12:28N 24°31' E 118°05'0 0.0
2017-Aug-06 11:58N 24°31' E 118°05'0 0.0
2017-Aug-06 11:25N 24°31' E 118°05'0 0.0
2017-Aug-06 10:58N 24°31' E 118°05'0 0.0
2017-Aug-06 10:28N 24°31' E 118°05'0 0.0
2017-Aug-06 09:58N 24°31' E 118°05'0 0.0
2017-Aug-06 09:28N 24°31' E 118°05'0 0.0
2017-Aug-06 08:58N 24°31' E 118°05'0 0.0
2017-Aug-06 08:22N 24°31' E 118°05'0 0.0
2017-Aug-06 07:52N 24°31' E 118°05'0 0.0
2017-Aug-06 07:28N 24°31' E 118°05'0 0.0
2017-Aug-06 06:58N 24°31' E 118°05'0 0.0
2017-Aug-06 06:28N 24°31' E 118°05'0 0.0
2017-Aug-06 05:58N 24°31' E 118°05'0 0.0
2017-Aug-06 05:28N 24°31' E 118°05'0 0.0
2017-Aug-06 04:58N 24°31' E 118°05'0 0.0
2017-Aug-06 04:28N 24°31' E 118°05'0 0.0
2017-Aug-06 03:55N 24°31' E 118°05'0 0.0
2017-Aug-06 03:28N 24°31' E 118°05'0 0.0
2017-Aug-06 02:58N 24°31' E 118°05'0 0.0
2017-Aug-06 02:22N 24°31' E 118°05'0 0.0
2017-Aug-06 01:58N 24°31' E 118°05'0 1.0
2017-Aug-06 01:30N 24°31' E 118°04'510.0
2017-Aug-06 01:01N 24°26' E 118°04'612.7
2017-Aug-06 00:31N 24°21' E 118°09'510.0
2017-Aug-06 00:01N 24°19' E 118°14'4 8.1
2017-Aug-05 23:31N 24°18' E 118°18'3 6.2
2017-Aug-05 23:00N 24°15' E 118°19'4 7.3
2017-Aug-05 22:29N 24°12' E 118°19'5 9.4
2017-Aug-05 22:00N 24°08' E 118°23'612.5
2017-Aug-05 21:30N 24°07' E 118°29'7 7.3
2017-Aug-05 20:32N 24°03' E 118°35'8 3.7
2017-Aug-05 18:28N 24°01' E 118°27'2 4.8
2017-Aug-05 18:00N 23°59' E 118°25'5 9.5
2017-Aug-05 17:30N 23°57' E 118°21'6 9.6
2017-Aug-05 16:54N 23°53' E 118°16'5 9.5
2017-Aug-05 16:23N 23°50' E 118°12'7 9.6
2017-Aug-05 15:37N 23°44' E 118°07'7 9.6
2017-Aug-05 14:50N 23°39' E 118°01'410.5
2017-Aug-05 14:30N 23°36' E 117°59'1015.4
2017-Aug-05 13:50N 23°29' E 117°51'  

Dump ship's entire track history